Time;durP1;ratioP1;P1;durP2;ratioP2;P2;SDS_P1;SDS_P2;PMS_P1;PMS_P2;Temp;Humidity;BMP_temperature;BMP_pressure;BME280_temperature;BME280_humidity;BME280_pressure;Samples;Min_cycle;Max_cycle;Signal;HPM_P1;HPM_P2
2022/01/15 00:01:03;;;;;;;23.73;7.50;;;5.90;99.90;;;;;;5013202;28;20073;-55
2022/01/15 00:03:30;;;;;;;22.73;7.10;;;5.80;99.90;;;;;;5013575;28;20033;-54
2022/01/15 00:05:56;;;;;;;19.63;7.05;;;5.90;99.90;;;;;;5015468;28;20426;-57
2022/01/15 00:08:22;;;;;;;19.08;6.95;;;5.90;99.90;;;;;;5013930;28;20117;-56
2022/01/15 00:10:48;;;;;;;20.13;6.78;;;5.90;99.90;;;;;;5013652;28;20041;-55
2022/01/15 00:13:23;;;;;;;18.77;6.28;;;5.90;99.90;;;;;;5014724;28;20381;-56
2022/01/15 00:15:54;;;;;;;19.77;6.93;;;5.90;99.90;;;;;;5013407;28;20049;-52
2022/01/15 00:18:38;;;;;;;13.32;5.97;;;5.90;99.90;;;;;;5013769;28;20045;-57
2022/01/15 00:21:04;;;;;;;17.52;6.10;;;5.80;99.90;;;;;;5013012;28;20099;-55
2022/01/15 00:23:30;;;;;;;21.35;6.10;;;5.80;99.90;;;;;;5012676;28;20405;-53
2022/01/15 00:25:55;;;;;;;16.42;6.15;;;5.80;99.90;;;;;;5013235;28;20406;-57
2022/01/15 00:28:21;;;;;;;18.77;5.80;;;5.90;99.90;;;;;;5012675;28;20060;-55
2022/01/15 00:30:47;;;;;;;16.10;6.10;;;5.80;99.90;;;;;;5012685;28;20091;-56
2022/01/15 00:33:12;;;;;;;15.00;6.45;;;5.80;99.90;;;;;;5012926;28;20072;-57
2022/01/15 00:35:38;;;;;;;19.98;6.38;;;5.80;99.90;;;;;;5012925;28;20052;-55
2022/01/15 00:38:04;;;;;;;19.63;6.55;;;6.00;99.90;;;;;;5012851;28;20038;-53
2022/01/15 00:40:29;;;;;;;14.63;5.93;;;5.80;99.90;;;;;;5012797;28;20046;-55
2022/01/15 00:42:55;;;;;;;18.90;6.43;;;5.80;99.90;;;;;;5013134;28;20046;-55
2022/01/15 00:45:22;;;;;;;17.50;7.00;;;5.80;99.90;;;;;;5012917;28;20034;-53
2022/01/15 00:47:50;;;;;;;18.92;5.80;;;5.80;99.90;;;;;;5012896;28;20041;-55
2022/01/15 00:50:16;;;;;;;14.23;5.75;;;5.80;99.90;;;;;;5013044;28;20049;-57
2022/01/15 00:52:42;;;;;;;15.68;5.82;;;5.80;99.90;;;;;;5012637;28;20037;-55
2022/01/15 00:55:10;;;;;;;14.13;5.85;;;5.80;99.90;;;;;;5013163;28;20044;-57
2022/01/15 00:57:35;;;;;;;13.55;5.30;;;5.80;99.90;;;;;;5012464;28;20400;-57
2022/01/15 01:00:04;;;;;;;16.35;5.63;;;5.80;99.90;;;;;;5012073;28;20038;-57
2022/01/15 01:02:30;;;;;;;14.95;5.25;;;5.80;99.90;;;;;;5012626;28;20049;-58
2022/01/15 01:04:55;;;;;;;14.75;5.85;;;5.80;99.90;;;;;;5016675;28;20037;-54
2022/01/15 01:07:21;;;;;;;13.80;5.30;;;5.80;99.90;;;;;;5013105;28;20040;-56
2022/01/15 01:10:04;;;;;;;14.00;5.32;;;5.80;99.90;;;;;;5012386;28;20159;-58
2022/01/15 01:23:18;;;;;;;22.02;6.00;;;5.80;99.90;;;;;;5011600;28;20126;-55
2022/01/15 01:25:48;;;;;;;13.98;5.78;;;5.80;99.90;;;;;;4993350;28;20038;-56
2022/01/15 01:28:26;;;;;;;13.35;5.40;;;5.80;99.90;;;;;;5012095;28;20120;-56
2022/01/15 01:31:01;;;;;;;18.40;5.85;;;5.80;99.90;;;;;;5011822;28;20041;-56
2022/01/15 01:33:35;;;;;;;19.15;6.22;;;5.70;99.90;;;;;;5011870;28;20041;-56
2022/01/15 01:38:38;;;;;;;19.23;6.32;;;5.80;99.90;;;;;;5011842;28;20038;-57
2022/01/15 01:41:06;;;;;;;20.00;6.80;;;5.80;99.90;;;;;;5011803;28;20517;-58
2022/01/15 01:48:47;;;;;;;15.35;5.72;;;5.80;99.90;;;;;;5012052;28;20549;-57
2022/01/15 01:51:36;;;;;;;17.60;6.00;;;5.80;99.90;;;;;;5010848;28;20568;-57
2022/01/15 01:54:04;;;;;;;15.20;5.53;;;5.70;99.90;;;;;;5011953;28;20041;-56
2022/01/15 01:56:30;;;;;;;17.90;6.13;;;5.70;99.90;;;;;;5011735;28;20046;-55
2022/01/15 01:58:56;;;;;;;14.52;5.68;;;5.70;99.90;;;;;;5011803;28;20539;-54
2022/01/15 02:01:23;;;;;;;18.80;5.90;;;5.70;99.90;;;;;;4993373;28;20112;-52
2022/01/15 02:03:48;;;;;;;15.38;5.63;;;5.70;99.90;;;;;;5011594;28;20042;-57
2022/01/15 02:06:15;;;;;;;16.67;5.90;;;5.80;99.90;;;;;;5011492;28;20069;-57
2022/01/15 02:08:41;;;;;;;16.20;5.75;;;5.70;99.90;;;;;;5011842;28;20105;-53
2022/01/15 02:11:07;;;;;;;19.35;5.85;;;6.00;99.90;;;;;;5011520;28;20076;-58
2022/01/15 02:13:38;;;;;;;12.15;5.10;;;5.70;99.90;;;;;;5011626;28;20087;-55
2022/01/15 02:16:04;;;;;;;12.07;4.97;;;5.70;99.90;;;;;;5011393;28;20034;-57
2022/01/15 02:18:30;;;;;;;13.85;5.45;;;5.70;99.90;;;;;;5011345;28;20046;-56
2022/01/15 02:23:31;;;;;;;11.80;5.25;;;5.70;99.90;;;;;;5011642;28;20046;-55
2022/01/15 02:23:46;;;;;;;16.92;5.40;;;5.70;99.90;;;;;;5010971;28;20042;-58
2022/01/15 02:26:24;;;;;;;14.10;5.45;;;5.70;99.90;;;;;;5011492;28;20045;-58
2022/01/15 02:29:00;;;;;;;15.27;5.72;;;5.70;99.90;;;;;;5011260;28;20038;-56
2022/01/15 02:31:29;;;;;;;18.40;5.95;;;5.70;99.90;;;;;;5011087;28;20042;-58
2022/01/15 02:33:57;;;;;;;10.93;4.70;;;5.70;99.90;;;;;;5011572;28;20034;-56
2022/01/15 02:36:25;;;;;;;13.18;5.22;;;5.70;99.90;;;;;;5011235;28;20492;-56
2022/01/15 02:38:52;;;;;;;14.73;4.70;;;5.70;99.90;;;;;;5011131;28;20034;-58
2022/01/15 02:41:36;;;;;;;12.48;4.80;;;5.70;99.90;;;;;;5010919;28;20056;-54
2022/01/15 02:44:04;;;;;;;11.80;4.13;;;5.60;99.90;;;;;;5011487;28;20049;-54
2022/01/15 02:48:59;;;;;;;12.82;4.28;;;5.60;99.90;;;;;;5011172;28;20065;-55
2022/01/15 02:51:27;;;;;;;11.65;4.72;;;5.60;99.90;;;;;;5011107;28;20537;-57
2022/01/15 02:53:56;;;;;;;12.88;4.70;;;5.60;99.90;;;;;;5011251;28;20057;-57
2022/01/15 02:56:43;;;;;;;10.05;4.28;;;5.60;99.90;;;;;;5012102;28;20103;-56
2022/01/15 02:59:18;;;;;;;11.25;4.07;;;5.60;99.90;;;;;;5014531;28;20042;-56
2022/01/15 03:01:45;;;;;;;10.10;3.90;;;5.60;99.90;;;;;;5014537;28;20042;-53
2022/01/15 03:04:10;;;;;;;8.40;3.85;;;5.60;99.90;;;;;;5014567;28;20050;-53
2022/01/15 03:06:36;;;;;;;10.80;3.58;;;5.60;99.90;;;;;;5014607;28;20374;-55
2022/01/15 03:09:02;;;;;;;10.40;4.40;;;5.60;99.90;;;;;;5015494;28;20045;-56
2022/01/15 03:11:28;;;;;;;13.57;4.18;;;5.60;99.90;;;;;;5014690;28;20045;-58
2022/01/15 03:13:54;;;;;;;9.43;4.05;;;5.60;99.90;;;;;;5015484;28;20038;-57
2022/01/15 03:16:22;;;;;;;12.60;4.70;;;5.60;99.90;;;;;;5014571;28;20041;-58
2022/01/15 03:18:49;;;;;;;11.85;4.18;;;5.60;99.90;;;;;;5014567;28;20048;-59
2022/01/15 03:21:15;;;;;;;13.32;4.55;;;5.60;99.90;;;;;;5015383;28;20077;-56
2022/01/15 03:23:41;;;;;;;12.27;4.30;;;5.60;99.90;;;;;;4996294;28;20050;-57
2022/01/15 03:26:08;;;;;;;12.10;4.40;;;5.60;99.90;;;;;;5014488;28;20404;-57
2022/01/15 03:28:34;;;;;;;11.15;4.25;;;5.60;99.90;;;;;;5014386;28;20034;-58
2022/01/15 03:31:00;;;;;;;12.50;4.80;;;5.60;99.90;;;;;;5014095;28;20069;-57
2022/01/15 03:33:26;;;;;;;15.40;4.45;;;5.60;99.90;;;;;;5013912;28;20420;-56
2022/01/15 03:35:52;;;;;;;13.25;4.65;;;5.60;99.90;;;;;;5014597;28;20077;-56
2022/01/15 03:38:17;;;;;;;14.25;4.50;;;5.60;99.90;;;;;;5013987;28;20073;-56
2022/01/15 03:40:43;;;;;;;12.95;4.60;;;5.60;99.90;;;;;;5014152;28;20034;-55
2022/01/15 03:43:09;;;;;;;10.60;4.32;;;5.60;99.90;;;;;;5013773;28;20045;-54
2022/01/15 03:45:35;;;;;;;11.27;4.47;;;5.60;99.90;;;;;;5013849;28;20029;-54
2022/01/15 03:48:00;;;;;;;12.70;4.70;;;5.80;99.90;;;;;;5013839;28;20034;-56
2022/01/15 03:50:27;;;;;;;11.63;4.45;;;5.60;99.90;;;;;;5013849;28;20068;-57
2022/01/15 03:52:54;;;;;;;13.30;4.85;;;5.60;99.90;;;;;;5013850;28;20061;-57
2022/01/15 03:55:20;;;;;;;10.15;3.50;;;5.60;99.90;;;;;;5013702;28;20507;-56
2022/01/15 03:57:46;;;;;;;11.68;3.85;;;5.50;99.90;;;;;;5013592;28;20041;-57
2022/01/15 04:00:16;;;;;;;9.00;4.43;;;5.50;99.90;;;;;;5013128;28;20121;-58
2022/01/15 04:02:42;;;;;;;8.82;4.10;;;5.50;99.90;;;;;;5013445;28;20041;-55
2022/01/15 04:05:10;;;;;;;9.38;4.20;;;5.50;99.90;;;;;;5013643;28;20042;-56
2022/01/15 04:07:35;;;;;;;10.82;4.70;;;5.50;99.90;;;;;;5013197;28;20045;-57
2022/01/15 04:10:02;;;;;;;9.63;4.28;;;5.50;99.90;;;;;;5013330;28;20037;-55
2022/01/15 04:12:28;;;;;;;13.88;4.40;;;5.60;99.90;;;;;;5013390;28;20037;-54
2022/01/15 04:14:54;;;;;;;10.52;5.00;;;5.50;99.90;;;;;;5013518;28;20041;-54
2022/01/15 04:17:20;;;;;;;10.13;4.75;;;5.50;99.90;;;;;;5013686;28;20041;-55
2022/01/15 04:19:46;;;;;;;12.68;4.57;;;5.50;99.90;;;;;;5013309;28;20051;-56
2022/01/15 04:22:11;;;;;;;11.70;4.20;;;5.50;99.90;;;;;;5013090;28;20065;-55
2022/01/15 04:24:37;;;;;;;9.40;4.57;;;5.50;99.90;;;;;;5013406;28;20046;-55
2022/01/15 04:27:03;;;;;;;8.30;3.95;;;5.50;99.90;;;;;;5012892;28;20073;-57
2022/01/15 04:29:31;;;;;;;8.27;3.70;;;5.50;99.90;;;;;;5012614;28;20033;-56
2022/01/15 04:31:57;;;;;;;9.70;4.18;;;5.50;99.90;;;;;;5013069;28;20041;-56
2022/01/15 04:34:27;;;;;;;8.40;4.07;;;5.40;99.90;;;;;;5013009;28;20034;-55
2022/01/15 04:37:05;;;;;;;7.82;3.78;;;5.40;99.90;;;;;;5013093;28;20030;-53
2022/01/15 04:39:31;;;;;;;9.45;3.83;;;5.40;99.90;;;;;;5012920;28;20121;-58
2022/01/15 04:41:56;;;;;;;10.50;3.50;;;5.40;99.90;;;;;;5012779;28;20113;-58
2022/01/15 04:44:22;;;;;;;10.73;4.60;;;5.40;99.90;;;;;;5012947;28;20041;-56
2022/01/15 04:46:48;;;;;;;9.88;3.90;;;5.40;99.90;;;;;;5012829;28;20109;-56
2022/01/15 04:49:14;;;;;;;9.30;3.15;;;5.40;99.90;;;;;;5012709;28;20049;-57
2022/01/15 04:51:39;;;;;;;8.00;3.05;;;5.40;99.90;;;;;;5012918;28;20068;-58
2022/01/15 04:54:05;;;;;;;6.32;2.75;;;5.40;99.90;;;;;;5012785;28;20037;-57
2022/01/15 04:56:31;;;;;;;5.70;2.45;;;5.40;99.90;;;;;;5012704;28;20113;-58
2022/01/15 04:58:57;;;;;;;6.97;2.92;;;5.40;99.90;;;;;;5012503;28;20126;-55
2022/01/15 05:01:22;;;;;;;6.65;2.78;;;5.40;99.90;;;;;;5012297;28;20096;-56
2022/01/15 05:03:48;;;;;;;7.00;2.97;;;5.40;99.90;;;;;;5012373;28;20042;-57
2022/01/15 05:06:14;;;;;;;7.70;3.40;;;5.40;99.90;;;;;;5012454;28;20038;-53
2022/01/15 05:08:41;;;;;;;7.85;2.85;;;5.30;99.90;;;;;;5012461;28;20040;-55
2022/01/15 05:11:15;;;;;;;8.45;2.92;;;5.40;99.90;;;;;;5012196;28;20041;-56
2022/01/15 05:13:41;;;;;;;9.70;3.78;;;5.40;99.90;;;;;;4994700;28;20049;-57
2022/01/15 05:16:07;;;;;;;8.85;3.20;;;5.40;99.90;;;;;;5012110;28;20042;-56
2022/01/15 05:18:33;;;;;;;8.75;3.35;;;5.40;99.90;;;;;;5011892;28;20038;-56
2022/01/15 05:20:59;;;;;;;8.23;3.45;;;5.50;99.90;;;;;;5011904;28;20049;-55
2022/01/15 05:23:24;;;;;;;9.30;3.47;;;5.40;99.90;;;;;;5012078;28;20401;-55
2022/01/15 05:25:50;;;;;;;8.88;3.30;;;5.40;99.90;;;;;;5012355;28;20040;-55
2022/01/15 05:28:16;;;;;;;7.70;2.75;;;5.40;99.90;;;;;;5012226;28;20050;-56
2022/01/15 05:30:41;;;;;;;7.72;2.88;;;5.40;99.90;;;;;;5011635;28;20049;-55
2022/01/15 05:33:07;;;;;;;6.25;2.30;;;5.40;99.90;;;;;;5012210;28;20034;-57
2022/01/15 05:35:33;;;;;;;5.45;2.03;;;5.40;99.90;;;;;;4994325;28;20050;-56
2022/01/15 05:37:59;;;;;;;7.90;2.50;;;5.30;99.90;;;;;;5011921;28;20042;-55
2022/01/15 05:40:26;;;;;;;7.93;2.70;;;5.30;99.90;;;;;;5011998;28;20469;-53
2022/01/15 05:42:53;;;;;;;7.75;3.10;;;5.30;99.90;;;;;;5011807;28;20121;-54
2022/01/15 05:45:21;;;;;;;7.88;2.65;;;5.30;99.90;;;;;;5011805;28;20116;-57
2022/01/15 05:47:47;;;;;;;9.90;2.58;;;5.30;99.90;;;;;;5011920;28;20069;-57
2022/01/15 05:50:13;;;;;;;6.70;2.58;;;5.30;99.90;;;;;;5011612;28;20053;-55
2022/01/15 05:52:38;;;;;;;8.07;3.00;;;5.30;99.90;;;;;;5011755;28;20451;-57
2022/01/15 05:55:05;;;;;;;8.85;3.30;;;5.30;99.90;;;;;;5011717;28;20026;-56
2022/01/15 05:57:31;;;;;;;8.52;3.40;;;5.20;99.90;;;;;;5011643;28;20038;-57
2022/01/15 05:59:56;;;;;;;8.07;3.67;;;5.20;99.90;;;;;;5011245;28;20076;-56
2022/01/15 06:02:22;;;;;;;7.18;3.35;;;5.20;99.90;;;;;;5011679;28;20045;-57
2022/01/15 06:04:49;;;;;;;9.60;3.65;;;5.20;99.90;;;;;;5011658;28;20069;-54
2022/01/15 06:07:15;;;;;;;11.55;3.85;;;5.20;99.90;;;;;;5011405;28;20038;-54
2022/01/15 06:09:40;;;;;;;7.47;3.20;;;5.20;99.90;;;;;;5011693;28;20037;-55
2022/01/15 06:12:07;;;;;;;7.35;3.20;;;5.20;99.90;;;;;;5011653;28;20033;-56
2022/01/15 06:14:32;;;;;;;7.65;3.10;;;5.20;99.90;;;;;;4993681;28;20065;-58
2022/01/15 06:16:59;;;;;;;6.35;2.78;;;5.20;99.90;;;;;;5011478;28;20135;-58
2022/01/15 06:19:25;;;;;;;6.28;2.78;;;5.10;99.90;;;;;;5011830;28;20052;-55
2022/01/15 06:21:52;;;;;;;6.30;2.67;;;5.10;99.90;;;;;;5011271;28;20500;-56
2022/01/15 06:24:18;;;;;;;8.02;2.72;;;5.10;99.90;;;;;;5011068;28;20110;-56
2022/01/15 06:26:43;;;;;;;6.65;3.15;;;5.10;99.90;;;;;;5011311;28;20609;-57
2022/01/15 06:29:09;;;;;;;6.32;2.92;;;5.10;99.90;;;;;;5011410;28;20045;-57
2022/01/15 06:31:35;;;;;;;8.13;3.33;;;5.00;99.90;;;;;;5013929;28;20049;-55
2022/01/15 06:34:01;;;;;;;11.23;4.28;;;5.00;99.90;;;;;;5015337;28;20033;-57
2022/01/15 06:36:27;;;;;;;9.35;3.90;;;5.00;99.90;;;;;;5015216;28;20098;-57
2022/01/15 06:38:53;;;;;;;9.07;4.07;;;5.00;99.90;;;;;;5015153;28;20038;-57
2022/01/15 06:41:19;;;;;;;11.88;4.68;;;5.00;99.90;;;;;;5015424;28;20048;-57
2022/01/15 06:43:44;;;;;;;10.02;4.20;;;5.00;99.90;;;;;;5015082;28;20428;-56
2022/01/15 06:46:10;;;;;;;11.32;4.07;;;5.10;99.90;;;;;;5014956;28;20442;-57
2022/01/15 06:48:36;;;;;;;13.07;5.07;;;5.00;99.90;;;;;;5013813;28;20033;-56
2022/01/15 06:51:02;;;;;;;9.77;4.70;;;5.00;99.90;;;;;;5015224;28;21071;-57
2022/01/15 06:53:29;;;;;;;9.98;4.53;;;5.00;99.90;;;;;;5014921;28;20042;-56
2022/01/15 06:55:55;;;;;;;12.77;4.88;;;5.00;99.90;;;;;;5013898;28;20069;-56
2022/01/15 06:58:22;;;;;;;9.50;4.13;;;5.00;99.90;;;;;;5014103;28;20481;-57
2022/01/15 07:00:48;;;;;;;9.35;3.70;;;5.00;99.90;;;;;;5014462;28;20041;-55
2022/01/15 07:03:14;;;;;;;8.50;3.72;;;5.00;99.90;;;;;;5014768;28;20046;-57
2022/01/15 07:05:40;;;;;;;7.88;3.10;;;5.00;99.90;;;;;;4996038;28;20039;-56
2022/01/15 07:08:06;;;;;;;7.40;3.00;;;5.00;99.90;;;;;;5014595;28;20073;-52
2022/01/15 07:10:31;;;;;;;8.13;3.40;;;5.10;99.90;;;;;;5014759;28;20481;-55
2022/01/15 07:12:57;;;;;;;6.50;2.80;;;4.90;99.90;;;;;;5014655;28;20041;-53
2022/01/15 07:15:23;;;;;;;7.35;2.90;;;5.10;99.90;;;;;;5014565;28;20180;-58
2022/01/15 07:17:49;;;;;;;8.70;3.20;;;4.90;99.90;;;;;;4996730;28;20410;-58
2022/01/15 07:20:17;;;;;;;9.88;3.95;;;4.90;99.90;;;;;;5014379;28;20882;-55
2022/01/15 07:22:44;;;;;;;10.90;4.18;;;4.90;99.90;;;;;;5014081;28;20133;-56
2022/01/15 07:25:10;;;;;;;9.18;4.32;;;4.90;99.90;;;;;;5014604;28;20076;-53
2022/01/15 07:27:37;;;;;;;10.50;4.60;;;4.90;99.90;;;;;;5014036;28;20038;-55
2022/01/15 07:30:07;;;;;;;10.05;4.70;;;4.90;99.90;;;;;;5013727;28;20034;-55
2022/01/15 07:32:33;;;;;;;14.38;5.85;;;4.90;99.90;;;;;;5014706;28;20563;-56
2022/01/15 07:34:59;;;;;;;12.82;5.70;;;4.80;99.90;;;;;;4996094;28;20037;-57
2022/01/15 07:37:25;;;;;;;12.57;6.00;;;4.80;99.90;;;;;;5014323;28;20043;-56
2022/01/15 07:39:53;;;;;;;13.07;5.75;;;4.90;99.90;;;;;;5013986;28;20048;-56
2022/01/15 07:42:19;;;;;;;13.73;6.70;;;4.80;99.90;;;;;;5013453;28;20042;-58
2022/01/15 07:44:45;;;;;;;14.18;6.18;;;4.80;99.90;;;;;;5014030;28;20042;-56
2022/01/15 07:47:12;;;;;;;16.35;7.25;;;4.80;99.90;;;;;;5014268;28;20044;-58
2022/01/15 07:49:38;;;;;;;19.88;8.68;;;4.80;99.90;;;;;;5013910;28;20445;-56
2022/01/15 07:52:04;;;;;;;18.85;7.95;;;4.80;99.90;;;;;;5013311;28;20044;-51
2022/01/15 07:54:30;;;;;;;21.92;8.70;;;4.80;99.90;;;;;;5013708;28;20034;-53
2022/01/15 07:56:56;;;;;;;18.40;8.00;;;4.80;99.90;;;;;;5013939;28;20045;-58
2022/01/15 07:59:22;;;;;;;21.30;8.80;;;4.90;99.90;;;;;;5012228;28;20045;-54
2022/01/15 08:01:48;;;;;;;23.15;9.65;;;4.80;99.90;;;;;;5011922;28;21446;-56
2022/01/15 08:04:13;;;;;;;24.73;10.15;;;4.70;99.90;;;;;;5015582;28;20042;-53
2022/01/15 08:06:41;;;;;;;28.73;11.43;;;4.80;99.90;;;;;;5014335;28;20432;-56
2022/01/15 08:09:07;;;;;;;26.42;11.63;;;4.70;99.90;;;;;;5013411;28;20038;-59
2022/01/15 08:11:32;;;;;;;30.40;12.93;;;4.70;99.90;;;;;;5000323;28;20413;-55
2022/01/15 08:13:58;;;;;;;36.75;13.63;;;4.70;99.90;;;;;;5001746;28;20038;-56
2022/01/15 08:16:24;;;;;;;37.58;15.43;;;4.70;99.90;;;;;;5002313;28;20492;-56
2022/01/15 08:18:49;;;;;;;33.05;14.65;;;4.70;99.90;;;;;;5002219;28;20033;-57
2022/01/15 08:21:15;;;;;;;41.53;15.07;;;4.70;99.90;;;;;;5000945;28;20513;-59
2022/01/15 08:23:41;;;;;;;32.35;14.82;;;4.60;99.90;;;;;;5001278;28;20547;-58
2022/01/15 08:26:06;;;;;;;35.42;14.52;;;4.60;99.90;;;;;;5000701;28;20109;-57
2022/01/15 08:28:32;;;;;;;37.35;14.98;;;4.60;99.90;;;;;;4998091;28;20041;-56
2022/01/15 08:30:58;;;;;;;34.97;14.68;;;4.60;99.90;;;;;;4997351;28;20048;-55
2022/01/15 08:33:24;;;;;;;40.67;16.42;;;4.60;99.90;;;;;;4997629;28;20065;-56
2022/01/15 08:35:50;;;;;;;38.97;16.60;;;4.50;99.90;;;;;;4997749;28;20069;-58
2022/01/15 08:38:15;;;;;;;32.20;15.43;;;4.50;99.90;;;;;;4997726;28;20050;-58
2022/01/15 08:40:42;;;;;;;39.55;16.50;;;4.50;99.90;;;;;;4997208;28;20046;-57
2022/01/15 08:43:07;;;;;;;38.65;16.05;;;4.50;99.90;;;;;;4995987;28;20041;-57
2022/01/15 08:45:36;;;;;;;41.40;15.70;;;4.50;99.90;;;;;;4997823;28;20493;-56
2022/01/15 08:48:02;;;;;;;40.85;16.33;;;4.50;99.90;;;;;;4997308;28;20508;-55
2022/01/15 08:50:27;;;;;;;41.30;16.52;;;4.50;99.90;;;;;;4996817;28;20038;-54
2022/01/15 08:52:53;;;;;;;43.08;16.63;;;4.60;99.90;;;;;;4997192;28;20043;-56
2022/01/15 08:55:20;;;;;;;40.97;17.08;;;4.50;99.90;;;;;;4994129;28;21262;-55
2022/01/15 08:57:46;;;;;;;41.35;16.70;;;4.40;99.90;;;;;;4996912;28;20037;-56
2022/01/15 09:00:17;;;;;;;40.05;16.77;;;4.80;99.90;;;;;;4996408;28;20038;-53
2022/01/15 09:02:44;;;;;;;43.95;17.67;;;4.50;99.90;;;;;;4996560;28;20500;-51
2022/01/15 09:05:10;;;;;;;37.83;15.57;;;4.40;99.90;;;;;;4996680;28;20050;-57
2022/01/15 09:07:36;;;;;;;34.08;16.25;;;4.40;99.90;;;;;;4996881;28;20429;-53
2022/01/15 09:10:02;;;;;;;33.88;16.27;;;4.40;99.90;;;;;;4992933;28;20073;-58
2022/01/15 09:12:28;;;;;;;44.15;17.00;;;4.40;99.90;;;;;;4997064;28;20042;-57
2022/01/15 09:14:58;;;;;;;39.22;17.80;;;4.40;99.90;;;;;;4995437;28;20747;-58
2022/01/15 09:17:27;;;;;;;41.63;18.50;;;3.90;99.90;;;;;;4996608;28;20042;-55
2022/01/15 09:19:54;;;;;;;41.70;18.48;;;4.40;99.90;;;;;;4997631;28;20135;-56
2022/01/15 09:22:20;;;;;;;39.83;18.25;;;4.40;99.90;;;;;;4997053;28;20033;-56
2022/01/15 09:24:46;;;;;;;38.80;17.42;;;4.40;99.90;;;;;;4996551;28;20045;-56
2022/01/15 09:30:15;;;;;;;35.08;16.58;;;4.40;99.90;;;;;;5133076;27;20049;-58
2022/01/15 09:32:50;;;;;;;36.78;16.23;;;4.40;99.90;;;;;;5133076;27;20046;-58
2022/01/15 09:35:18;;;;;;;30.75;14.40;;;4.40;99.90;;;;;;5133300;27;20035;-56
2022/01/15 09:37:46;;;;;;;33.97;14.90;;;4.40;99.90;;;;;;5135673;27;20043;-57
2022/01/15 09:43:15;;;;;;;32.85;15.20;;;4.30;99.90;;;;;;3790156;22;21537;-56
2022/01/15 09:45:42;;;;;;;33.90;15.23;;;4.30;99.90;;;;;;5106620;22;20051;-58
2022/01/15 09:48:08;;;;;;;36.22;16.23;;;4.30;99.90;;;;;;5102856;28;20277;-57
2022/01/15 09:50:43;;;;;;;35.90;16.40;;;4.30;99.90;;;;;;5105879;28;20100;-56
2022/01/15 09:53:16;;;;;;;34.13;15.43;;;4.30;99.90;;;;;;5105196;28;20439;-56
2022/01/15 09:55:43;;;;;;;36.97;16.33;;;4.30;99.90;;;;;;5105595;28;20047;-56
2022/01/15 09:58:08;;;;;;;35.08;16.83;;;4.40;99.90;;;;;;5107373;28;20075;-58
2022/01/15 10:00:34;;;;;;;35.10;15.80;;;4.40;99.90;;;;;;5108091;28;20067;-56
2022/01/15 10:03:00;;;;;;;36.15;16.85;;;4.40;99.90;;;;;;5106363;28;20036;-56
2022/01/15 10:05:26;;;;;;;37.45;17.73;;;4.40;99.90;;;;;;5106300;28;20047;-57
2022/01/15 10:08:03;;;;;;;30.77;15.27;;;4.40;99.90;;;;;;5082313;28;20403;-57
2022/01/15 10:10:31;;;;;;;35.70;16.52;;;4.40;99.90;;;;;;5097754;28;20043;-57
2022/01/15 10:13:24;;;;;;;36.35;17.40;;;4.30;99.90;;;;;;5103583;28;20039;-58
2022/01/15 10:15:58;;;;;;;33.60;16.20;;;4.30;99.90;;;;;;5104178;28;20044;-58
2022/01/15 10:18:27;;;;;;;37.00;17.38;;;4.30;99.90;;;;;;5099483;28;20363;-57
2022/01/15 10:20:55;;;;;;;36.25;17.13;;;4.30;99.90;;;;;;5106866;28;20057;-56
2022/01/15 10:23:23;;;;;;;39.75;17.65;;;4.30;99.90;;;;;;5107750;28;20047;-56
2022/01/15 10:26:14;;;;;;;37.83;17.25;;;4.40;99.90;;;;;;5107018;28;20556;-56
2022/01/15 10:28:56;;;;;;;37.95;18.25;;;4.40;99.90;;;;;;5105592;28;20647;-56
2022/01/15 10:31:25;;;;;;;38.88;18.95;;;4.40;99.90;;;;;;5100211;28;20173;-57
2022/01/15 10:37:12;;;;;;;46.30;20.48;;;4.40;99.90;;;;;;4222991;22;20055;-58
2022/01/15 10:39:40;;;;;;;46.35;21.90;;;4.40;99.90;;;;;;5077702;22;20072;-58
2022/01/15 10:42:14;;;;;;;44.97;21.65;;;4.40;99.90;;;;;;5070624;28;20039;-58
2022/01/15 10:44:42;;;;;;;50.63;22.33;;;4.40;99.90;;;;;;5043819;28;20056;-56
2022/01/15 10:47:13;;;;;;;52.28;23.38;;;4.40;99.90;;;;;;5038739;28;20139;-57
2022/01/15 10:49:40;;;;;;;51.38;23.30;;;4.40;99.90;;;;;;5056835;28;20150;-57
2022/01/15 10:52:19;;;;;;;55.00;23.75;;;4.40;99.90;;;;;;5047001;28;20496;-56
2022/01/15 10:55:11;;;;;;;53.05;22.15;;;4.40;99.90;;;;;;5051759;28;20032;-56
2022/01/15 10:57:38;;;;;;;47.33;21.38;;;4.40;99.90;;;;;;5052131;28;20384;-56
2022/01/15 11:00:14;;;;;;;42.45;19.58;;;4.40;99.90;;;;;;5054320;28;20361;-56
2022/01/15 11:02:43;;;;;;;50.10;22.63;;;4.40;99.90;;;;;;5056379;28;20129;-57
2022/01/15 11:05:37;;;;;;;47.42;19.90;;;4.40;99.90;;;;;;5051734;28;20142;-53
2022/01/15 11:08:07;;;;;;;46.90;20.67;;;4.30;99.90;;;;;;5056883;28;20392;-58
2022/01/15 11:10:50;;;;;;;52.15;21.42;;;4.30;99.90;;;;;;5035286;28;20082;-55
2022/01/15 11:13:23;;;;;;;50.72;21.70;;;4.30;99.90;;;;;;5058025;28;20268;-56
2022/01/15 11:15:54;;;;;;;54.95;23.42;;;4.30;99.90;;;;;;5054991;28;20029;-57
2022/01/15 11:18:58;;;;;;;57.72;23.67;;;4.30;99.90;;;;;;5044628;28;20033;-56
2022/01/15 11:21:29;;;;;;;49.85;22.00;;;4.30;99.90;;;;;;5049862;28;20037;-57
2022/01/15 11:23:58;;;;;;;56.75;22.15;;;4.30;99.90;;;;;;5051598;28;20120;-58
2022/01/15 11:26:27;;;;;;;54.75;22.40;;;4.30;99.90;;;;;;5048644;28;20068;-55
2022/01/15 11:28:53;;;;;;;56.25;22.98;;;4.30;99.90;;;;;;5054488;28;20040;-54
2022/01/15 11:31:23;;;;;;;65.78;25.02;;;4.30;99.90;;;;;;5054221;28;20048;-53
2022/01/15 11:33:51;;;;;;;70.45;24.75;;;4.30;99.90;;;;;;5054736;28;20029;-54
2022/01/15 11:36:30;;;;;;;55.85;22.25;;;4.30;99.90;;;;;;5055919;28;20040;-57
2022/01/15 12:16:36;;;;;;;62.20;19.05;;;4.30;99.90;;;;;;5083216;22;20144;-55
2022/01/15 12:19:03;;;;;;;55.45;18.10;;;4.20;99.90;;;;;;5044570;28;20110;-56
2022/01/15 12:21:54;;;;;;;67.00;20.27;;;4.20;99.90;;;;;;5051661;28;20029;-56
2022/01/15 12:24:40;;;;;;;69.88;20.85;;;4.20;99.90;;;;;;5051692;28;20069;-56
2022/01/15 12:27:10;;;;;;;71.13;20.70;;;4.20;99.90;;;;;;5056345;28;20475;-56
2022/01/15 12:29:37;;;;;;;78.68;21.17;;;4.30;99.90;;;;;;5039947;28;20048;-58
2022/01/15 12:32:03;;;;;;;66.15;21.08;;;4.20;99.90;;;;;;5051768;28;20036;-56
2022/01/15 12:34:29;;;;;;;71.22;21.80;;;4.20;99.90;;;;;;5053654;28;20037;-58
2022/01/15 12:36:55;;;;;;;76.38;21.58;;;4.20;99.90;;;;;;5055681;28;20041;-58
2022/01/15 12:39:34;;;;;;;67.10;21.35;;;4.20;99.90;;;;;;5067372;28;20040;-57
2022/01/15 12:42:00;;;;;;;76.90;22.75;;;4.20;99.90;;;;;;5050031;28;20514;-56
2022/01/15 12:44:26;;;;;;;69.38;23.38;;;4.20;99.90;;;;;;5052093;28;20117;-56
2022/01/15 12:46:58;;;;;;;69.68;22.98;;;4.20;99.90;;;;;;5069148;28;20040;-57
2022/01/15 12:49:36;;;;;;;66.20;22.27;;;4.20;99.90;;;;;;5071057;28;20373;-56
2022/01/15 12:52:28;;;;;;;64.70;22.98;;;4.20;99.90;;;;;;5070884;28;20487;-56
2022/01/15 12:54:57;;;;;;;71.00;23.48;;;4.20;99.90;;;;;;5067163;28;20040;-57
2022/01/15 12:57:45;;;;;;;77.85;24.70;;;4.30;99.90;;;;;;5071068;28;20047;-55
2022/01/15 13:00:22;;;;;;;69.00;24.13;;;4.30;99.90;;;;;;5070564;28;20136;-56
2022/01/15 13:02:52;;;;;;;76.13;24.50;;;4.30;99.90;;;;;;5070590;28;20040;-56
2022/01/15 13:05:18;;;;;;;71.25;24.95;;;4.20;99.90;;;;;;5071014;28;20058;-58
2022/01/15 13:07:55;;;;;;;66.30;23.77;;;4.20;99.90;;;;;;5070964;28;20041;-57
2022/01/15 13:10:31;;;;;;;70.07;24.30;;;4.30;99.90;;;;;;5070637;28;20078;-56
2022/01/15 13:12:57;;;;;;;71.43;26.08;;;4.30;99.90;;;;;;5070108;28;20037;-57
2022/01/15 13:15:26;;;;;;;72.43;25.35;;;4.30;99.90;;;;;;5052651;28;20562;-55
2022/01/15 13:17:51;;;;;;;73.68;25.55;;;4.30;99.90;;;;;;5070144;28;20084;-54
2022/01/15 13:20:29;;;;;;;66.15;25.65;;;4.30;99.90;;;;;;5070601;28;20098;-58
2022/01/15 13:22:55;;;;;;;73.20;26.20;;;4.30;99.90;;;;;;5070308;28;20075;-56
2022/01/15 13:25:23;;;;;;;65.80;26.05;;;4.30;99.90;;;;;;5065658;28;20116;-57
2022/01/15 13:27:48;;;;;;;86.35;28.40;;;4.20;99.90;;;;;;5032039;28;20149;-56
2022/01/15 13:30:14;;;;;;;78.03;27.30;;;4.30;99.90;;;;;;5067991;28;20120;-56
2022/01/15 13:33:03;;;;;;;72.80;27.50;;;4.30;99.90;;;;;;5067914;28;20051;-57
2022/01/15 13:35:41;;;;;;;65.18;25.67;;;4.30;99.90;;;;;;5064832;28;20040;-57
2022/01/15 13:38:09;;;;;;;80.60;26.25;;;4.30;99.90;;;;;;5066716;28;20041;-56
2022/01/15 13:40:44;;;;;;;75.00;24.92;;;4.30;99.90;;;;;;5054611;28;20526;-56
2022/01/15 13:43:23;;;;;;;75.28;25.67;;;4.30;99.90;;;;;;5066376;28;20125;-53
2022/01/15 13:45:49;;;;;;;71.78;23.98;;;4.30;99.90;;;;;;5064743;28;20115;-52
2022/01/15 13:48:21;;;;;;;94.10;26.65;;;4.20;99.90;;;;;;5052973;28;20040;-54
2022/01/15 13:53:48;;;;;;;79.45;26.27;;;4.20;99.90;;;;;;5053956;28;20392;-55
2022/01/15 13:56:25;;;;;;;81.40;26.10;;;4.20;99.90;;;;;;5058982;28;20044;-54
2022/01/15 13:58:58;;;;;;;87.47;28.40;;;4.20;99.90;;;;;;5057324;28;20537;-56
2022/01/15 14:01:26;;;;;;;104.57;25.17;;;4.20;99.90;;;;;;5035235;28;20044;-54
2022/01/15 14:03:53;;;;;;;107.05;26.85;;;4.20;99.90;;;;;;5055080;28;20032;-56